sensor_id;sensor_type;location;lat;lon;timestamp;temperature;humidity
15977;DHT22;8091;51.914;12.786;2022-07-04T10:10:32;25.90;1.00
15977;DHT22;8091;51.914;12.786;2022-07-04T10:13:17;25.80;61.20
15977;DHT22;8091;51.914;12.786;2022-07-04T10:15:43;26.00;59.60
15977;DHT22;8091;51.914;12.786;2022-07-04T10:18:09;26.00;59.10
15977;DHT22;8091;51.914;12.786;2022-07-04T10:20:36;26.00;55.60
15977;DHT22;8091;51.914;12.786;2022-07-04T10:23:02;25.90;55.40
15977;DHT22;8091;51.914;12.786;2022-07-04T10:25:28;26.10;55.20
15977;DHT22;8091;51.914;12.786;2022-07-04T10:27:58;26.10;54.50
15977;DHT22;8091;51.914;12.786;2022-07-04T10:30:36;26.10;54.90
15977;DHT22;8091;51.914;12.786;2022-07-04T10:33:15;25.90;54.90
15977;DHT22;8091;51.914;12.786;2022-07-04T10:38:25;25.90;55.90
15977;DHT22;8091;51.914;12.786;2022-07-04T10:40:52;25.90;56.30
15977;DHT22;8091;51.914;12.786;2022-07-04T10:46:21;25.90;54.50
15977;DHT22;8091;51.914;12.786;2022-07-04T10:48:59;25.70;54.20
15977;DHT22;8091;51.914;12.786;2022-07-04T10:51:43;25.90;53.80
15977;DHT22;8091;51.914;12.786;2022-07-04T10:54:31;25.90;53.70
15977;DHT22;8091;51.914;12.786;2022-07-04T10:59:37;25.90;52.80
15977;DHT22;8091;51.914;12.786;2022-07-04T11:04:45;27.50;50.00
15977;DHT22;8091;51.914;12.786;2022-07-04T11:07:18;28.50;46.60
15977;DHT22;8091;51.914;12.786;2022-07-04T11:09:44;29.10;43.10
15977;DHT22;8091;51.914;12.786;2022-07-04T11:12:11;28.70;43.80
15977;DHT22;8091;51.914;12.786;2022-07-04T11:14:47;28.60;43.80
15977;DHT22;8091;51.914;12.786;2022-07-04T11:19:41;27.60;45.40
15977;DHT22;8091;51.914;12.786;2022-07-04T11:22:09;27.30;46.40
15977;DHT22;8091;51.914;12.786;2022-07-04T11:24:37;28.00;45.40
15977;DHT22;8091;51.914;12.786;2022-07-04T11:27:03;28.90;43.00
15977;DHT22;8091;51.914;12.786;2022-07-04T11:29:29;29.50;41.20
15977;DHT22;8091;51.914;12.786;2022-07-04T11:31:56;29.10;41.00
15977;DHT22;8091;51.914;12.786;2022-07-04T11:34:23;28.40;42.50
15977;DHT22;8091;51.914;12.786;2022-07-04T11:36:50;27.90;43.70
15977;DHT22;8091;51.914;12.786;2022-07-04T11:39:18;27.70;44.20
15977;DHT22;8091;51.914;12.786;2022-07-04T11:41:52;27.90;44.40
15977;DHT22;8091;51.914;12.786;2022-07-04T11:44:39;29.00;42.30
15977;DHT22;8091;51.914;12.786;2022-07-04T11:47:31;30.50;38.80
15977;DHT22;8091;51.914;12.786;2022-07-04T11:49:58;31.80;35.90
15977;DHT22;8091;51.914;12.786;2022-07-04T11:52:26;32.60;33.10
15977;DHT22;8091;51.914;12.786;2022-07-04T11:54:52;32.30;33.20
15977;DHT22;8091;51.914;12.786;2022-07-04T11:57:24;32.90;32.50
15977;DHT22;8091;51.914;12.786;2022-07-04T11:59:55;33.00;31.20
15977;DHT22;8091;51.914;12.786;2022-07-04T12:02:21;33.30;30.10
15977;DHT22;8091;51.914;12.786;2022-07-04T12:04:47;33.50;29.60
15977;DHT22;8091;51.914;12.786;2022-07-04T12:07:18;34.10;28.50
15977;DHT22;8091;51.914;12.786;2022-07-04T12:09:45;34.40;27.60
15977;DHT22;8091;51.914;12.786;2022-07-04T12:12:12;33.90;28.00
15977;DHT22;8091;51.914;12.786;2022-07-04T12:14:38;32.90;29.20
15977;DHT22;8091;51.914;12.786;2022-07-04T12:17:20;32.90;29.10
15977;DHT22;8091;51.914;12.786;2022-07-04T12:19:57;33.20;29.00
15977;DHT22;8091;51.914;12.786;2022-07-04T12:22:28;32.90;29.30
15977;DHT22;8091;51.914;12.786;2022-07-04T12:24:55;33.00;29.20
15977;DHT22;8091;51.914;12.786;2022-07-04T12:27:22;33.90;27.80
15977;DHT22;8091;51.914;12.786;2022-07-04T12:29:49;33.90;27.40
15977;DHT22;8091;51.914;12.786;2022-07-04T12:32:16;34.30;27.30
15977;DHT22;8091;51.914;12.786;2022-07-04T12:34:42;33.80;27.50
15977;DHT22;8091;51.914;12.786;2022-07-04T12:37:09;33.80;27.30
15977;DHT22;8091;51.914;12.786;2022-07-04T12:39:38;33.70;27.60
15977;DHT22;8091;51.914;12.786;2022-07-04T12:42:15;33.90;27.30
15977;DHT22;8091;51.914;12.786;2022-07-04T12:44:43;34.80;26.40
15977;DHT22;8091;51.914;12.786;2022-07-04T12:47:11;34.60;26.40
15977;DHT22;8091;51.914;12.786;2022-07-04T12:49:41;34.20;26.10
15977;DHT22;8091;51.914;12.786;2022-07-04T12:52:16;33.70;27.10
15977;DHT22;8091;51.914;12.786;2022-07-04T12:55:01;33.80;26.60
15977;DHT22;8091;51.914;12.786;2022-07-04T12:57:28;34.20;25.80
15977;DHT22;8091;51.914;12.786;2022-07-04T12:59:53;34.00;26.00
15977;DHT22;8091;51.914;12.786;2022-07-04T13:02:19;33.90;26.20
15977;DHT22;8091;51.914;12.786;2022-07-04T13:04:45;33.10;26.30
15977;DHT22;8091;51.914;12.786;2022-07-04T13:07:16;33.30;27.00
15977;DHT22;8091;51.914;12.786;2022-07-04T13:09:44;33.90;26.20
15977;DHT22;8091;51.914;12.786;2022-07-04T13:12:10;34.90;24.70
15977;DHT22;8091;51.914;12.786;2022-07-04T13:14:57;35.90;24.00
15977;DHT22;8091;51.914;12.786;2022-07-04T13:17:24;36.10;23.50
15977;DHT22;8091;51.914;12.786;2022-07-04T13:19:50;34.70;24.10
15977;DHT22;8091;51.914;12.786;2022-07-04T13:22:22;34.50;24.30
15977;DHT22;8091;51.914;12.786;2022-07-04T13:24:50;34.40;24.80
15977;DHT22;8091;51.914;12.786;2022-07-04T13:27:16;34.80;24.80
15977;DHT22;8091;51.914;12.786;2022-07-04T13:29:43;35.10;24.20
15977;DHT22;8091;51.914;12.786;2022-07-04T13:32:09;35.10;23.40
15977;DHT22;8091;51.914;12.786;2022-07-04T13:34:35;34.80;23.40
15977;DHT22;8091;51.914;12.786;2022-07-04T13:37:01;34.20;23.90
15977;DHT22;8091;51.914;12.786;2022-07-04T13:39:27;32.60;25.70
15977;DHT22;8091;51.914;12.786;2022-07-04T13:41:53;31.20;27.30
15977;DHT22;8091;51.914;12.786;2022-07-04T13:44:18;30.80;27.90
15977;DHT22;8091;51.914;12.786;2022-07-04T13:46:44;30.60;28.50
15977;DHT22;8091;51.914;12.786;2022-07-04T13:49:10;30.40;28.80
15977;DHT22;8091;51.914;12.786;2022-07-04T13:51:37;30.30;28.50
15977;DHT22;8091;51.914;12.786;2022-07-04T13:54:03;30.70;28.30
15977;DHT22;8091;51.914;12.786;2022-07-04T13:56:29;30.70;28.10
15977;DHT22;8091;51.914;12.786;2022-07-04T13:58:55;30.50;28.20
15977;DHT22;8091;51.914;12.786;2022-07-04T14:01:21;31.00;27.40
15977;DHT22;8091;51.914;12.786;2022-07-04T14:03:48;31.00;27.40
15977;DHT22;8091;51.914;12.786;2022-07-04T14:06:14;31.60;27.10
15977;DHT22;8091;51.914;12.786;2022-07-04T14:08:41;32.60;26.00
15977;DHT22;8091;51.914;12.786;2022-07-04T14:11:07;33.10;25.50
15977;DHT22;8091;51.914;12.786;2022-07-04T14:13:32;33.80;24.20
15977;DHT22;8091;51.914;12.786;2022-07-04T14:15:58;34.30;24.00
15977;DHT22;8091;51.914;12.786;2022-07-04T14:18:24;35.30;22.90
15977;DHT22;8091;51.914;12.786;2022-07-04T14:20:50;35.60;22.00
15977;DHT22;8091;51.914;12.786;2022-07-04T14:23:16;35.50;22.00
15977;DHT22;8091;51.914;12.786;2022-07-04T14:26:03;36.50;21.40
15977;DHT22;8091;51.914;12.786;2022-07-04T14:28:29;36.20;20.60
15977;DHT22;8091;51.914;12.786;2022-07-04T14:30:55;35.10;22.70
15977;DHT22;8091;51.914;12.786;2022-07-04T14:33:20;34.90;23.00
15977;DHT22;8091;51.914;12.786;2022-07-04T14:35:46;33.90;23.20
15977;DHT22;8091;51.914;12.786;2022-07-04T14:38:11;33.30;23.80
15977;DHT22;8091;51.914;12.786;2022-07-04T14:40:37;33.50;24.10
15977;DHT22;8091;51.914;12.786;2022-07-04T14:43:06;34.00;23.10
15977;DHT22;8091;51.914;12.786;2022-07-04T14:45:31;35.00;22.00
15977;DHT22;8091;51.914;12.786;2022-07-04T14:47:57;35.50;21.50
15977;DHT22;8091;51.914;12.786;2022-07-04T14:50:23;36.20;21.50
15977;DHT22;8091;51.914;12.786;2022-07-04T14:52:50;37.20;20.00
15977;DHT22;8091;51.914;12.786;2022-07-04T14:55:15;37.50;20.00
15977;DHT22;8091;51.914;12.786;2022-07-04T14:57:41;37.10;19.70
15977;DHT22;8091;51.914;12.786;2022-07-04T15:00:07;36.20;20.10
15977;DHT22;8091;51.914;12.786;2022-07-04T15:02:33;34.90;21.50
15977;DHT22;8091;51.914;12.786;2022-07-04T15:04:58;35.20;21.90
15977;DHT22;8091;51.914;12.786;2022-07-04T15:07:24;36.10;20.80
15977;DHT22;8091;51.914;12.786;2022-07-04T15:09:51;37.00;20.10
15977;DHT22;8091;51.914;12.786;2022-07-04T15:12:16;37.60;19.70
15977;DHT22;8091;51.914;12.786;2022-07-04T15:14:42;38.90;18.50
15977;DHT22;8091;51.914;12.786;2022-07-04T15:17:08;38.40;18.00
15977;DHT22;8091;51.914;12.786;2022-07-04T15:19:33;37.40;19.50
15977;DHT22;8091;51.914;12.786;2022-07-04T15:22:19;37.70;19.40
15977;DHT22;8091;51.914;12.786;2022-07-04T15:25:03;38.80;18.50
15977;DHT22;8091;51.914;12.786;2022-07-04T15:27:29;38.90;18.10
15977;DHT22;8091;51.914;12.786;2022-07-04T15:29:54;38.00;18.50
15977;DHT22;8091;51.914;12.786;2022-07-04T15:32:20;36.40;20.20
15977;DHT22;8091;51.914;12.786;2022-07-04T15:34:46;36.00;20.60
15977;DHT22;8091;51.914;12.786;2022-07-04T15:37:11;36.50;20.00
15977;DHT22;8091;51.914;12.786;2022-07-04T15:39:37;36.90;19.10
15977;DHT22;8091;51.914;12.786;2022-07-04T15:42:03;37.30;19.30
15977;DHT22;8091;51.914;12.786;2022-07-04T15:44:28;38.00;18.80
15977;DHT22;8091;51.914;12.786;2022-07-04T15:46:57;37.70;18.30
15977;DHT22;8091;51.914;12.786;2022-07-04T15:49:36;37.50;18.50
15977;DHT22;8091;51.914;12.786;2022-07-04T15:52:03;36.70;18.60
15977;DHT22;8091;51.914;12.786;2022-07-04T15:54:30;35.70;19.90
15977;DHT22;8091;51.914;12.786;2022-07-04T15:56:56;34.70;20.70
15977;DHT22;8091;51.914;12.786;2022-07-04T15:59:21;33.90;21.90
15977;DHT22;8091;51.914;12.786;2022-07-04T16:01:47;33.40;21.70
15977;DHT22;8091;51.914;12.786;2022-07-04T16:04:13;33.90;21.40
15977;DHT22;8091;51.914;12.786;2022-07-04T16:06:38;33.60;21.30
15977;DHT22;8091;51.914;12.786;2022-07-04T16:09:06;32.60;22.30
15977;DHT22;8091;51.914;12.786;2022-07-04T16:11:31;32.20;22.60
15977;DHT22;8091;51.914;12.786;2022-07-04T16:13:57;31.90;23.30
15977;DHT22;8091;51.914;12.786;2022-07-04T16:16:23;33.10;22.50
15977;DHT22;8091;51.914;12.786;2022-07-04T16:18:49;34.20;21.00
15977;DHT22;8091;51.914;12.786;2022-07-04T16:21:15;34.00;20.90
15977;DHT22;8091;51.914;12.786;2022-07-04T16:23:41;33.40;21.60
15977;DHT22;8091;51.914;12.786;2022-07-04T16:26:07;32.40;22.60
15977;DHT22;8091;51.914;12.786;2022-07-04T16:28:32;31.90;23.50
15977;DHT22;8091;51.914;12.786;2022-07-04T16:30:58;31.50;24.00
15977;DHT22;8091;51.914;12.786;2022-07-04T16:33:23;31.30;24.20
15977;DHT22;8091;51.914;12.786;2022-07-04T16:35:50;31.30;24.00
15977;DHT22;8091;51.914;12.786;2022-07-04T16:38:16;32.30;22.50
15977;DHT22;8091;51.914;12.786;2022-07-04T16:40:43;33.10;21.70
15977;DHT22;8091;51.914;12.786;2022-07-04T16:43:11;33.30;21.40
15977;DHT22;8091;51.914;12.786;2022-07-04T16:45:37;32.90;22.30
15977;DHT22;8091;51.914;12.786;2022-07-04T16:48:03;32.40;22.70
15977;DHT22;8091;51.914;12.786;2022-07-04T16:50:32;31.80;23.00
15977;DHT22;8091;51.914;12.786;2022-07-04T16:52:58;31.00;23.80
15977;DHT22;8091;51.914;12.786;2022-07-04T16:55:23;30.30;24.60
15977;DHT22;8091;51.914;12.786;2022-07-04T16:57:49;30.00;25.40
15977;DHT22;8091;51.914;12.786;2022-07-04T17:00:15;30.50;25.10
15977;DHT22;8091;51.914;12.786;2022-07-04T17:02:40;30.70;24.80
15977;DHT22;8091;51.914;12.786;2022-07-04T17:05:07;30.30;24.50
15977;DHT22;8091;51.914;12.786;2022-07-04T17:07:33;30.20;24.90
15977;DHT22;8091;51.914;12.786;2022-07-04T17:09:58;30.00;24.90
15977;DHT22;8091;51.914;12.786;2022-07-04T17:12:24;29.90;25.40
15977;DHT22;8091;51.914;12.786;2022-07-04T17:14:55;29.60;25.40
15977;DHT22;8091;51.914;12.786;2022-07-04T17:17:21;30.30;25.00
15977;DHT22;8091;51.914;12.786;2022-07-04T17:19:46;31.20;23.70
15977;DHT22;8091;51.914;12.786;2022-07-04T17:22:12;32.10;23.00
15977;DHT22;8091;51.914;12.786;2022-07-04T17:24:37;32.80;22.50
15977;DHT22;8091;51.914;12.786;2022-07-04T17:27:03;33.60;21.80
15977;DHT22;8091;51.914;12.786;2022-07-04T17:29:29;33.80;20.80
15977;DHT22;8091;51.914;12.786;2022-07-04T17:31:55;32.80;21.60
15977;DHT22;8091;51.914;12.786;2022-07-04T17:34:20;31.90;22.60
15977;DHT22;8091;51.914;12.786;2022-07-04T17:36:46;31.00;23.80
15977;DHT22;8091;51.914;12.786;2022-07-04T17:39:12;30.50;24.50
15977;DHT22;8091;51.914;12.786;2022-07-04T17:41:37;30.00;24.90
15977;DHT22;8091;51.914;12.786;2022-07-04T17:44:06;29.70;25.40
15977;DHT22;8091;51.914;12.786;2022-07-04T17:46:32;29.30;25.90
15977;DHT22;8091;51.914;12.786;2022-07-04T17:48:57;29.00;25.80
15977;DHT22;8091;51.914;12.786;2022-07-04T17:51:23;28.90;25.90
15977;DHT22;8091;51.914;12.786;2022-07-04T17:53:49;28.60;26.10
15977;DHT22;8091;51.914;12.786;2022-07-04T17:56:14;28.50;26.30
15977;DHT22;8091;51.914;12.786;2022-07-04T17:58:40;28.40;26.80
15977;DHT22;8091;51.914;12.786;2022-07-04T18:01:06;28.20;26.80
15977;DHT22;8091;51.914;12.786;2022-07-04T18:03:31;28.00;27.30
15977;DHT22;8091;51.914;12.786;2022-07-04T18:05:57;27.90;26.90
15977;DHT22;8091;51.914;12.786;2022-07-04T18:08:22;27.70;27.00
15977;DHT22;8091;51.914;12.786;2022-07-04T18:10:48;27.60;27.20
15977;DHT22;8091;51.914;12.786;2022-07-04T18:13:14;27.50;27.30
15977;DHT22;8091;51.914;12.786;2022-07-04T18:15:40;27.40;27.50
15977;DHT22;8091;51.914;12.786;2022-07-04T18:18:06;27.30;27.70
15977;DHT22;8091;51.914;12.786;2022-07-04T18:20:32;27.30;27.80
15977;DHT22;8091;51.914;12.786;2022-07-04T18:22:57;27.20;27.90
15977;DHT22;8091;51.914;12.786;2022-07-04T18:25:24;27.10;28.10
15977;DHT22;8091;51.914;12.786;2022-07-04T18:27:50;27.10;27.70
15977;DHT22;8091;51.914;12.786;2022-07-04T18:30:16;27.10;27.80
15977;DHT22;8091;51.914;12.786;2022-07-04T18:32:41;27.00;28.10
15977;DHT22;8091;51.914;12.786;2022-07-04T18:35:07;26.90;28.20
15977;DHT22;8091;51.914;12.786;2022-07-04T18:37:33;26.80;28.30
15977;DHT22;8091;51.914;12.786;2022-07-04T18:39:59;26.70;28.50
15977;DHT22;8091;51.914;12.786;2022-07-04T18:42:25;26.60;28.60
15977;DHT22;8091;51.914;12.786;2022-07-04T18:45:09;26.60;28.70
15977;DHT22;8091;51.914;12.786;2022-07-04T18:47:37;26.50;28.90
15977;DHT22;8091;51.914;12.786;2022-07-04T18:50:03;26.40;29.10
15977;DHT22;8091;51.914;12.786;2022-07-04T18:52:29;26.30;29.20
15977;DHT22;8091;51.914;12.786;2022-07-04T18:54:54;26.20;29.40
15977;DHT22;8091;51.914;12.786;2022-07-04T18:57:20;26.20;29.50
15977;DHT22;8091;51.914;12.786;2022-07-04T18:59:45;26.20;29.70
15977;DHT22;8091;51.914;12.786;2022-07-04T19:02:11;26.10;30.00
15977;DHT22;8091;51.914;12.786;2022-07-04T19:04:37;26.00;29.70
15977;DHT22;8091;51.914;12.786;2022-07-04T19:07:02;25.80;30.00
15977;DHT22;8091;51.914;12.786;2022-07-04T19:09:28;25.90;30.10
15977;DHT22;8091;51.914;12.786;2022-07-04T19:11:54;25.80;30.30
15977;DHT22;8091;51.914;12.786;2022-07-04T19:14:20;25.60;30.90
15977;DHT22;8091;51.914;12.786;2022-07-04T19:16:45;25.50;31.10
15977;DHT22;8091;51.914;12.786;2022-07-04T19:19:11;25.40;31.30
15977;DHT22;8091;51.914;12.786;2022-07-04T19:21:38;25.30;31.60
15977;DHT22;8091;51.914;12.786;2022-07-04T19:24:04;25.10;31.90
15977;DHT22;8091;51.914;12.786;2022-07-04T19:26:29;25.10;32.30
15977;DHT22;8091;51.914;12.786;2022-07-04T19:28:55;25.10;32.60
15977;DHT22;8091;51.914;12.786;2022-07-04T19:31:21;24.90;32.30
15977;DHT22;8091;51.914;12.786;2022-07-04T19:33:47;24.90;32.70
15977;DHT22;8091;51.914;12.786;2022-07-04T19:36:13;24.80;33.30
15977;DHT22;8091;51.914;12.786;2022-07-04T19:38:42;24.70;33.70
15977;DHT22;8091;51.914;12.786;2022-07-04T19:41:08;24.60;33.50
15977;DHT22;8091;51.914;12.786;2022-07-04T19:43:33;24.50;34.00
15977;DHT22;8091;51.914;12.786;2022-07-04T19:45:59;24.40;34.20
15977;DHT22;8091;51.914;12.786;2022-07-04T19:48:24;24.30;34.50
15977;DHT22;8091;51.914;12.786;2022-07-04T19:50:50;24.20;34.70
15977;DHT22;8091;51.914;12.786;2022-07-04T19:53:16;24.10;35.10
15977;DHT22;8091;51.914;12.786;2022-07-04T19:55:43;24.10;35.10
15977;DHT22;8091;51.914;12.786;2022-07-04T19:58:09;24.00;35.40
15977;DHT22;8091;51.914;12.786;2022-07-04T20:00:35;24.00;35.80
15977;DHT22;8091;51.914;12.786;2022-07-04T20:03:01;24.00;36.00
15977;DHT22;8091;51.914;12.786;2022-07-04T20:05:27;23.80;36.10
15977;DHT22;8091;51.914;12.786;2022-07-04T20:07:54;23.60;36.90
15977;DHT22;8091;51.914;12.786;2022-07-04T20:10:19;23.40;37.50
15977;DHT22;8091;51.914;12.786;2022-07-04T20:12:45;23.10;38.00
15977;DHT22;8091;51.914;12.786;2022-07-04T20:15:11;23.00;38.20
15977;DHT22;8091;51.914;12.786;2022-07-04T20:17:40;22.90;38.10
15977;DHT22;8091;51.914;12.786;2022-07-04T20:20:13;22.90;38.60
15977;DHT22;8091;51.914;12.786;2022-07-04T20:22:40;22.80;38.70
15977;DHT22;8091;51.914;12.786;2022-07-04T20:25:06;22.70;38.70
15977;DHT22;8091;51.914;12.786;2022-07-04T20:27:31;22.70;40.20
15977;DHT22;8091;51.914;12.786;2022-07-04T20:29:57;22.70;39.90
15977;DHT22;8091;51.914;12.786;2022-07-04T20:32:24;22.70;40.60
15977;DHT22;8091;51.914;12.786;2022-07-04T20:35:04;22.80;40.30
15977;DHT22;8091;51.914;12.786;2022-07-04T20:37:30;22.80;41.30
15977;DHT22;8091;51.914;12.786;2022-07-04T20:39:56;22.80;41.60
15977;DHT22;8091;51.914;12.786;2022-07-04T20:42:22;22.60;41.40
15977;DHT22;8091;51.914;12.786;2022-07-04T20:44:48;22.50;42.70
15977;DHT22;8091;51.914;12.786;2022-07-04T20:47:13;22.40;43.10
15977;DHT22;8091;51.914;12.786;2022-07-04T20:49:43;22.30;43.50
15977;DHT22;8091;51.914;12.786;2022-07-04T20:52:09;22.20;43.20
15977;DHT22;8091;51.914;12.786;2022-07-04T20:54:37;22.00;44.20
15977;DHT22;8091;51.914;12.786;2022-07-04T20:57:03;21.80;45.40
15977;DHT22;8091;51.914;12.786;2022-07-04T20:59:31;21.70;45.70
15977;DHT22;8091;51.914;12.786;2022-07-04T21:01:57;21.60;45.70
15977;DHT22;8091;51.914;12.786;2022-07-04T21:04:23;21.70;46.00
15977;DHT22;8091;51.914;12.786;2022-07-04T21:06:48;21.60;45.90
15977;DHT22;8091;51.914;12.786;2022-07-04T21:09:14;21.60;46.30
15977;DHT22;8091;51.914;12.786;2022-07-04T21:11:40;21.50;46.80
15977;DHT22;8091;51.914;12.786;2022-07-04T21:14:05;21.40;47.70
15977;DHT22;8091;51.914;12.786;2022-07-04T21:16:31;21.30;48.30
15977;DHT22;8091;51.914;12.786;2022-07-04T21:18:57;21.20;48.40
15977;DHT22;8091;51.914;12.786;2022-07-04T21:21:26;21.10;49.80
15977;DHT22;8091;51.914;12.786;2022-07-04T21:23:58;20.90;50.00
15977;DHT22;8091;51.914;12.786;2022-07-04T21:26:24;20.90;52.40
15977;DHT22;8091;51.914;12.786;2022-07-04T21:28:49;20.70;53.80
15977;DHT22;8091;51.914;12.786;2022-07-04T21:31:15;20.60;54.90
15977;DHT22;8091;51.914;12.786;2022-07-04T21:33:40;20.50;56.00
15977;DHT22;8091;51.914;12.786;2022-07-04T21:36:06;20.30;56.10
15977;DHT22;8091;51.914;12.786;2022-07-04T21:38:32;20.20;56.00
15977;DHT22;8091;51.914;12.786;2022-07-04T21:40:58;20.10;56.90
15977;DHT22;8091;51.914;12.786;2022-07-04T21:43:25;20.10;58.00
15977;DHT22;8091;51.914;12.786;2022-07-04T21:45:51;20.00;59.90
15977;DHT22;8091;51.914;12.786;2022-07-04T21:48:17;19.90;61.90
15977;DHT22;8091;51.914;12.786;2022-07-04T21:50:43;19.90;62.90
15977;DHT22;8091;51.914;12.786;2022-07-04T21:53:08;19.80;64.30
15977;DHT22;8091;51.914;12.786;2022-07-04T21:55:34;19.80;65.10
15977;DHT22;8091;51.914;12.786;2022-07-04T21:58:00;19.70;66.70
15977;DHT22;8091;51.914;12.786;2022-07-04T22:00:25;19.60;69.20
15977;DHT22;8091;51.914;12.786;2022-07-04T22:02:51;19.50;71.10
15977;DHT22;8091;51.914;12.786;2022-07-04T22:05:17;19.30;99.90
15977;DHT22;8091;51.914;12.786;2022-07-04T22:07:43;19.10;99.90
15977;DHT22;8091;51.914;12.786;2022-07-04T22:10:09;19.10;99.90
15977;DHT22;8091;51.914;12.786;2022-07-04T22:12:35;19.00;99.90
15977;DHT22;8091;51.914;12.786;2022-07-04T22:15:01;19.00;99.90
15977;DHT22;8091;51.914;12.786;2022-07-04T22:17:26;19.00;99.90
15977;DHT22;8091;51.914;12.786;2022-07-04T22:19:52;18.90;99.90
15977;DHT22;8091;51.914;12.786;2022-07-04T22:22:17;19.00;99.90
15977;DHT22;8091;51.914;12.786;2022-07-04T22:24:43;19.00;99.90
15977;DHT22;8091;51.914;12.786;2022-07-04T22:27:10;19.00;99.90
15977;DHT22;8091;51.914;12.786;2022-07-04T22:29:36;18.80;99.90
15977;DHT22;8091;51.914;12.786;2022-07-04T22:32:02;18.80;99.90
15977;DHT22;8091;51.914;12.786;2022-07-04T22:34:28;18.70;99.90
15977;DHT22;8091;51.914;12.786;2022-07-04T22:36:53;18.50;99.90
15977;DHT22;8091;51.914;12.786;2022-07-04T22:39:19;18.40;1.00
15977;DHT22;8091;51.914;12.786;2022-07-04T22:41:44;18.40;99.90
15977;DHT22;8091;51.914;12.786;2022-07-04T22:44:11;18.30;1.00
15977;DHT22;8091;51.914;12.786;2022-07-04T22:46:36;18.30;1.00
15977;DHT22;8091;51.914;12.786;2022-07-04T22:49:02;18.10;1.00
15977;DHT22;8091;51.914;12.786;2022-07-04T22:51:28;18.10;1.00
15977;DHT22;8091;51.914;12.786;2022-07-04T22:53:53;18.20;1.00
15977;DHT22;8091;51.914;12.786;2022-07-04T22:56:38;18.10;1.00
15977;DHT22;8091;51.914;12.786;2022-07-04T22:59:03;18.00;1.00
15977;DHT22;8091;51.914;12.786;2022-07-04T23:01:29;18.10;1.00
15977;DHT22;8091;51.914;12.786;2022-07-04T23:03:55;18.10;1.00
15977;DHT22;8091;51.914;12.786;2022-07-04T23:06:21;18.10;1.00
15977;DHT22;8091;51.914;12.786;2022-07-04T23:08:47;17.90;1.00
15977;DHT22;8091;51.914;12.786;2022-07-04T23:11:13;17.80;1.00
15977;DHT22;8091;51.914;12.786;2022-07-04T23:13:39;17.80;1.00
15977;DHT22;8091;51.914;12.786;2022-07-04T23:16:05;17.80;1.00
15977;DHT22;8091;51.914;12.786;2022-07-04T23:18:31;17.80;99.90
15977;DHT22;8091;51.914;12.786;2022-07-04T23:20:57;17.80;1.00
15977;DHT22;8091;51.914;12.786;2022-07-04T23:23:23;17.80;1.00
15977;DHT22;8091;51.914;12.786;2022-07-04T23:25:48;17.80;1.00
15977;DHT22;8091;51.914;12.786;2022-07-04T23:28:14;17.70;1.00
15977;DHT22;8091;51.914;12.786;2022-07-04T23:30:39;17.60;1.00
15977;DHT22;8091;51.914;12.786;2022-07-04T23:33:05;17.40;1.00
15977;DHT22;8091;51.914;12.786;2022-07-04T23:35:30;17.40;1.00
15977;DHT22;8091;51.914;12.786;2022-07-04T23:37:56;17.40;1.00
15977;DHT22;8091;51.914;12.786;2022-07-04T23:40:22;17.40;1.00
15977;DHT22;8091;51.914;12.786;2022-07-04T23:42:47;17.30;1.00
15977;DHT22;8091;51.914;12.786;2022-07-04T23:45:13;17.10;1.00
15977;DHT22;8091;51.914;12.786;2022-07-04T23:47:38;17.00;1.00
15977;DHT22;8091;51.914;12.786;2022-07-04T23:50:05;17.00;1.00
15977;DHT22;8091;51.914;12.786;2022-07-04T23:52:31;16.90;1.00
15977;DHT22;8091;51.914;12.786;2022-07-04T23:54:56;17.00;1.00
15977;DHT22;8091;51.914;12.786;2022-07-04T23:57:22;16.90;1.00
